Time;durP1;ratioP1;P1;durP2;ratioP2;P2;SDS_P1;SDS_P2;PMS_P1;PMS_P2;Temp;Humidity;BMP_temperature;BMP_pressure;BME280_temperature;BME280_humidity;BME280_pressure;Samples;Min_cycle;Max_cycle;Signal;HPM_P1;HPM_P2
2023/12/02 00:01:52;;;;;;;33.92;16.30;;;;;;;-1.59;100.00;100878.84;4943448;28;20062;-71
2023/12/02 00:04:18;;;;;;;33.72;16.02;;;;;;;-1.61;100.00;100872.97;4911487;28;20043;-71
2023/12/02 00:06:44;;;;;;;31.88;16.40;;;;;;;-1.60;100.00;100874.59;4942190;28;20117;-71
2023/12/02 00:09:10;;;;;;;31.95;16.23;;;;;;;-1.59;100.00;100883.28;4912819;29;20078;-71
2023/12/02 00:11:36;;;;;;;30.65;16.02;;;;;;;-1.58;100.00;100885.72;4924739;28;20775;-72
2023/12/02 00:14:02;;;;;;;33.38;17.13;;;;;;;-1.58;100.00;100885.72;4940861;28;20040;-70
2023/12/02 00:16:27;;;;;;;32.75;16.50;;;;;;;-1.58;100.00;100890.97;4927707;28;20514;-72
2023/12/02 00:18:53;;;;;;;34.17;17.20;;;;;;;-1.59;100.00;100883.28;4924960;28;20046;-71
2023/12/02 00:21:18;;;;;;;33.80;16.25;;;;;;;-1.60;100.00;100877.22;4922003;28;20464;-72
2023/12/02 00:23:44;;;;;;;30.13;15.75;;;;;;;-1.58;100.00;100875.22;4927495;28;20039;-71
2023/12/02 00:26:10;;;;;;;31.02;16.70;;;;;;;-1.59;100.00;100878.84;4913071;28;20043;-71
2023/12/02 00:28:38;;;;;;;30.88;15.95;;;;;;;-1.59;100.00;100868.34;4910728;29;20040;-71
2023/12/02 00:31:04;;;;;;;30.20;15.85;;;;;;;-1.56;100.00;100877.66;4912050;28;20062;-71
2023/12/02 00:33:30;;;;;;;31.35;16.60;;;;;;;-1.56;100.00;100875.03;4932660;28;20037;-70
2023/12/02 00:35:56;;;;;;;29.00;14.85;;;;;;;-1.55;100.00;100866.19;4939206;28;20039;-70
2023/12/02 00:38:22;;;;;;;28.38;15.32;;;;;;;-1.55;100.00;100869.63;4922257;29;20046;-71
2023/12/02 00:40:48;;;;;;;28.98;15.85;;;;;;;-1.55;100.00;100869.63;4935296;28;20042;-71
2023/12/02 00:43:13;;;;;;;28.58;13.70;;;;;;;-1.54;100.00;100868.59;4909007;28;20489;-70
2023/12/02 00:45:39;;;;;;;26.90;14.35;;;;;;;-1.54;100.00;100860.72;4934776;28;20043;-70
2023/12/02 00:48:05;;;;;;;27.08;13.15;;;;;;;-1.54;100.00;100863.34;4939616;28;20409;-71
2023/12/02 00:50:31;;;;;;;25.27;12.43;;;;;;;-1.55;100.00;100864.34;4922305;29;20095;-71
2023/12/02 00:52:57;;;;;;;27.83;14.40;;;;;;;-1.53;100.00;100864.97;4925438;28;20750;-71
2023/12/02 00:55:22;;;;;;;24.83;12.73;;;;;;;-1.53;100.00;100862.34;4929206;29;20039;-70
2023/12/02 00:57:48;;;;;;;25.02;12.98;;;;;;;-1.52;100.00;100858.72;4927277;28;20040;-70
2023/12/02 01:00:15;;;;;;;29.42;13.55;;;;;;;-1.51;100.00;100860.34;4912412;29;20039;-70
2023/12/02 01:02:41;;;;;;;;;;;;;;;-1.52;100.00;100863.97;4911944;28;20059;-70
2023/12/02 01:05:07;;;;;;;24.00;12.05;;;;;;;-1.52;100.00;100866.59;4901780;29;19925;-71
2023/12/02 01:07:33;;;;;;;23.88;12.00;;;;;;;-1.51;100.00;100857.72;4908232;28;20039;-71
2023/12/02 01:09:58;;;;;;;23.75;12.75;;;;;;;-1.52;100.00;100869.22;4939365;28;20461;-72
2023/12/02 01:12:24;;;;;;;25.65;13.55;;;;;;;-1.53;100.00;100856.28;4906303;29;20035;-71
2023/12/02 01:14:50;;;;;;;26.95;13.35;;;;;;;-1.52;100.00;100858.72;4922079;28;20094;-71
2023/12/02 01:17:16;;;;;;;22.98;13.23;;;;;;;-1.52;100.00;100853.47;4907520;28;20138;-72
2023/12/02 01:19:43;;;;;;;20.98;11.10;;;;;;;-1.52;100.00;100869.22;4922032;29;20047;-71
2023/12/02 01:22:09;;;;;;;20.65;11.07;;;;;;;-1.52;100.00;100863.97;4925171;29;20043;-73
2023/12/02 01:24:35;;;;;;;18.20;9.73;;;;;;;-1.50;100.00;100869.03;4927512;28;20089;-71
2023/12/02 01:27:01;;;;;;;19.58;11.00;;;;;;;-1.49;100.00;100862.78;4944948;28;20038;-72
2023/12/02 01:29:27;;;;;;;18.98;10.65;;;;;;;-1.50;100.00;100861.97;4914106;29;20042;-72
2023/12/02 01:31:53;;;;;;;18.90;10.65;;;;;;;-1.48;100.00;100872.31;4921927;28;20626;-71
2023/12/02 01:34:19;;;;;;;18.02;10.23;;;;;;;-1.49;100.00;100874.13;4925355;28;20035;-72
2023/12/02 01:36:45;;;;;;;19.17;10.02;;;;;;;-1.49;100.00;100876.75;4922004;28;20743;-71
2023/12/02 01:39:12;;;;;;;18.42;9.93;;;;;;;-1.48;100.00;100864.44;4911079;28;20028;-71
2023/12/02 01:41:39;;;;;;;17.48;9.88;;;;;;;-1.47;100.00;100876.56;4941106;28;20047;-71
2023/12/02 01:44:05;;;;;;;18.25;9.05;;;;;;;-1.48;100.00;100875.75;4923809;28;20062;-71
2023/12/02 01:46:30;;;;;;;18.92;9.23;;;;;;;-1.48;100.00;100875.75;4944338;28;20131;-71
2023/12/02 01:49:00;;;;;;;21.48;11.02;;;;;;;-1.49;100.00;100866.25;4908967;28;20047;-71
2023/12/02 01:51:27;;;;;;;21.88;10.80;;;;;;;-1.49;100.00;100863.63;4917827;29;20691;-72
2023/12/02 01:53:53;;;;;;;;;;;;;;;-1.49;100.00;100863.63;4936688;28;20894;-71
2023/12/02 01:56:19;;;;;;;16.42;8.90;;;;;;;-1.49;100.00;100868.88;4915960;29;19919;-72
2023/12/02 01:58:48;;;;;;;15.50;9.35;;;;;;;-1.49;100.00;100861.00;4908110;29;20035;-71
2023/12/02 02:01:14;;;;;;;18.40;9.40;;;;;;;-1.49;100.00;100861.00;4921726;29;20089;-72
2023/12/02 02:03:39;;;;;;;19.27;10.63;;;;;;;-1.49;100.00;100858.34;4916488;28;20704;-71
2023/12/02 02:06:10;;;;;;;18.95;10.50;;;;;;;-1.49;100.00;100861.00;4922858;29;20125;-71
2023/12/02 02:08:36;;;;;;;17.63;10.40;;;;;;;-1.49;100.00;100858.34;4920596;28;20043;-71
2023/12/02 02:11:02;;;;;;;18.35;10.55;;;;;;;-1.49;100.00;100868.88;4934420;28;20473;-71
2023/12/02 02:13:28;;;;;;;17.88;9.70;;;;;;;-1.48;100.00;100867.84;4932155;28;20099;-72
2023/12/02 02:15:54;;;;;;;15.98;9.40;;;;;;;-1.47;100.00;100866.84;4909447;28;20039;-70
2023/12/02 02:18:20;;;;;;;17.98;9.80;;;;;;;-1.47;100.00;100864.22;4927590;28;20039;-71
2023/12/02 02:20:53;;;;;;;18.15;10.30;;;;;;;-1.46;100.00;100868.47;4935989;28;20040;-71
2023/12/02 02:23:20;;;;;;;18.85;9.70;;;;;;;-1.45;100.00;100877.16;4923800;28;20094;-71
2023/12/02 02:25:49;;;;;;;18.83;11.10;;;;;;;-1.47;100.00;100876.56;4925776;29;20079;-71
2023/12/02 02:28:23;;;;;;;19.25;10.23;;;;;;;-1.48;100.00;100865.22;4921748;28;20041;-71
2023/12/02 02:30:49;;;;;;;19.73;9.98;;;;;;;-1.45;100.00;100871.91;4929390;28;20040;-71
2023/12/02 02:33:15;;;;;;;;;;;;;;;-1.46;100.00;100868.47;4931637;28;20050;-70
2023/12/02 02:35:42;;;;;;;18.02;9.25;;;;;;;-1.46;100.00;100868.47;4933003;28;20377;-71
2023/12/02 02:38:09;;;;;;;16.58;9.30;;;;;;;-1.47;100.00;100866.84;4921995;28;20927;-72
2023/12/02 02:40:34;;;;;;;20.58;10.10;;;;;;;-1.48;100.00;100873.13;4912448;29;20558;-71
2023/12/02 02:43:00;;;;;;;16.75;9.82;;;;;;;-1.48;100.00;100867.06;4927886;28;20118;-71
2023/12/02 02:45:26;;;;;;;17.55;9.75;;;;;;;-1.50;100.00;100872.47;4942159;28;20404;-71
2023/12/02 02:47:52;;;;;;;16.55;9.27;;;;;;;-1.48;100.00;100862.59;4939061;28;20117;-72
2023/12/02 02:50:18;;;;;;;17.15;9.85;;;;;;;-1.47;100.00;100868.69;4910677;29;20548;-71
2023/12/02 02:52:44;;;;;;;15.70;8.80;;;;;;;-1.47;100.00;100869.47;4928569;28;20039;-71
2023/12/02 02:55:10;;;;;;;17.50;9.82;;;;;;;-1.47;100.00;100866.03;4921241;28;20044;-71
2023/12/02 02:57:35;;;;;;;20.58;10.25;;;;;;;-1.50;100.00;100869.84;4913416;28;20028;-71
2023/12/02 03:00:04;;;;;;;17.23;9.57;;;;;;;-1.49;100.00;100865.41;4929805;28;20046;-72
2023/12/02 03:02:30;;;;;;;17.63;9.52;;;;;;;-1.50;100.00;100861.97;4935158;29;20567;-70
2023/12/02 03:04:56;;;;;;;17.83;9.60;;;;;;;-1.50;100.00;100867.22;4942989;28;20038;-71
2023/12/02 03:07:21;;;;;;;16.73;9.10;;;;;;;-1.52;100.00;100866.59;4930227;28;20046;-71
2023/12/02 03:09:47;;;;;;;19.08;9.95;;;;;;;-1.53;100.00;100870.22;4909334;29;20047;-71
2023/12/02 03:12:12;;;;;;;18.05;10.23;;;;;;;-1.51;100.00;100870.84;4909579;28;20031;-71
2023/12/02 03:14:38;;;;;;;16.75;8.98;;;;;;;-1.52;100.00;100869.22;4944329;28;20689;-70
2023/12/02 03:17:04;;;;;;;16.35;10.55;;;;;;;-1.52;100.00;100874.47;4947833;28;20507;-70
2023/12/02 03:19:29;;;;;;;16.15;9.45;;;;;;;-1.52;100.00;100869.22;4943454;28;20031;-71
2023/12/02 03:21:55;;;;;;;15.77;9.15;;;;;;;-1.51;100.00;100872.66;4945648;28;20039;-71
2023/12/02 03:24:21;;;;;;;17.42;9.20;;;;;;;-1.49;100.00;100868.03;4922158;28;20043;-71
2023/12/02 03:26:46;;;;;;;18.77;10.55;;;;;;;-1.51;100.00;100870.84;4931665;28;20042;-72
2023/12/02 03:29:12;;;;;;;15.02;8.55;;;;;;;-1.51;100.00;100873.47;4927492;28;20408;-71
2023/12/02 03:31:38;;;;;;;18.42;10.00;;;;;;;-1.52;100.00;100877.09;4938550;28;20161;-72
2023/12/02 03:34:04;;;;;;;19.30;10.77;;;;;;;-1.52;100.00;100873.66;4940442;28;20063;-71
2023/12/02 03:36:30;;;;;;;16.17;9.27;;;;;;;-1.53;100.00;100875.47;4910274;29;20040;-70
2023/12/02 03:38:56;;;;;;;18.38;9.60;;;;;;;-1.53;100.00;100877.28;4934559;28;20478;-70
2023/12/02 03:41:22;;;;;;;18.90;10.63;;;;;;;-1.52;100.00;100874.47;4925938;29;20043;-71
2023/12/02 03:43:48;;;;;;;22.05;10.90;;;;;;;-1.52;100.00;100863.97;4939243;28;20222;-71
2023/12/02 03:46:14;;;;;;;16.38;9.23;;;;;;;-1.50;100.00;100864.59;4904080;28;20046;-70
2023/12/02 03:48:39;;;;;;;17.60;9.57;;;;;;;-1.51;100.00;100867.41;4940020;28;20050;-70
2023/12/02 03:51:05;;;;;;;18.48;9.80;;;;;;;-1.51;100.00;100873.47;4924951;28;20033;-72
2023/12/02 03:53:34;;;;;;;17.85;9.82;;;;;;;-1.50;100.00;100877.72;4924010;29;20040;-71
2023/12/02 03:56:00;;;;;;;19.05;10.23;;;;;;;-1.51;100.00;100876.09;4941225;28;20522;-71
2023/12/02 03:58:27;;;;;;;17.63;9.43;;;;;;;-1.51;100.00;100878.72;4906278;28;20075;-70
2023/12/02 04:00:56;;;;;;;19.20;9.98;;;;;;;-1.50;100.00;100876.91;4928678;29;20464;-71
2023/12/02 04:03:22;;;;;;;19.60;9.32;;;;;;;-1.50;100.00;100875.09;4947453;28;21166;-71
2023/12/02 04:05:49;;;;;;;;;;;;;;;-1.49;100.00;100882.00;4917978;28;20042;-71
2023/12/02 04:08:14;;;;;;;16.15;9.25;;;;;;;-1.48;100.00;100874.94;4914589;28;19933;-71
2023/12/02 04:10:40;;;;;;;18.58;9.43;;;;;;;-1.48;100.00;100880.19;4927415;29;20048;-70
2023/12/02 04:13:06;;;;;;;16.40;8.85;;;;;;;-1.48;100.00;100875.75;4926152;29;20039;-71
2023/12/02 04:15:31;;;;;;;18.52;9.45;;;;;;;-1.50;100.00;100877.72;4932876;28;20031;-70
2023/12/02 04:17:57;;;;;;;20.13;10.55;;;;;;;-1.52;100.00;100879.72;4906002;29;20035;-71
2023/12/02 04:20:24;;;;;;;19.40;10.07;;;;;;;-1.51;100.00;100880.53;4944039;28;20601;-71
2023/12/02 04:22:49;;;;;;;18.52;10.45;;;;;;;-1.52;100.00;100877.09;4943810;28;20492;-70
2023/12/02 04:25:16;;;;;;;16.63;8.73;;;;;;;-1.51;100.00;100880.53;4905424;28;20086;-71
2023/12/02 04:27:42;;;;;;;;;;;;;;;-1.51;100.00;100881.34;4927722;29;20036;-70
2023/12/02 04:30:11;;;;;;;18.08;9.43;;;;;;;-1.51;100.00;100873.47;4925911;28;20624;-70
2023/12/02 04:32:37;;;;;;;16.38;9.20;;;;;;;-1.52;100.00;100882.34;4939457;28;20086;-71
2023/12/02 04:35:05;;;;;;;17.40;8.93;;;;;;;-1.53;100.00;100878.09;4911330;28;20051;-71
2023/12/02 04:37:31;;;;;;;18.63;9.35;;;;;;;-1.52;100.00;100882.34;4913700;29;20033;-71
2023/12/02 04:39:57;;;;;;;16.55;9.88;;;;;;;-1.50;100.00;100885.59;4944542;28;20070;-70
2023/12/02 04:42:23;;;;;;;17.25;9.00;;;;;;;-1.51;100.00;100891.84;4903729;29;20039;-71
2023/12/02 04:44:49;;;;;;;19.95;10.15;;;;;;;-1.51;100.00;100893.69;4945500;28;20046;-71
2023/12/02 04:47:14;;;;;;;23.15;11.00;;;;;;;-1.52;100.00;100900.75;4910599;28;20141;-70
2023/12/02 04:49:40;;;;;;;16.77;8.70;;;;;;;-1.51;100.00;100897.13;4920156;29;20058;-70
2023/12/02 04:52:06;;;;;;;17.25;9.93;;;;;;;-1.52;100.00;100895.50;4919463;28;20047;-70
2023/12/02 04:54:33;;;;;;;17.83;9.65;;;;;;;-1.50;100.00;100898.72;4920267;28;20024;-70
2023/12/02 04:57:00;;;;;;;17.50;9.15;;;;;;;-1.49;100.00;100900.38;4928601;28;20039;-70
2023/12/02 04:59:26;;;;;;;;;;;;;;;-1.52;100.00;100900.75;4941135;28;20042;-70
2023/12/02 05:01:52;;;;;;;15.95;7.80;;;;;;;-1.51;100.00;100902.38;4944591;28;19918;-70
2023/12/02 05:04:18;;;;;;;19.98;8.90;;;;;;;-1.51;100.00;100907.63;4907457;28;20043;-70
2023/12/02 05:06:44;;;;;;;15.68;7.93;;;;;;;-1.50;100.00;100906.63;4925841;28;20042;-71
2023/12/02 05:09:10;;;;;;;17.92;10.63;;;;;;;-1.51;100.00;100907.63;4924982;28;20073;-70
2023/12/02 05:11:36;;;;;;;20.27;9.27;;;;;;;-1.51;100.00;100910.25;4928135;29;20040;-70
2023/12/02 05:14:01;;;;;;;18.25;9.93;;;;;;;-1.51;100.00;100907.63;4947824;28;20035;-71
2023/12/02 05:16:27;;;;;;;19.15;10.73;;;;;;;-1.53;100.00;100909.63;4910531;28;20039;-71
2023/12/02 05:18:53;;;;;;;19.50;10.15;;;;;;;-1.50;100.00;100909.25;4945477;28;20031;-69
2023/12/02 05:21:20;;;;;;;19.10;10.15;;;;;;;-1.52;100.00;100911.25;4946766;28;20500;-71
2023/12/02 05:23:46;;;;;;;20.80;10.93;;;;;;;-1.54;100.00;100901.94;4914195;29;20039;-70
2023/12/02 05:26:11;;;;;;;20.27;11.15;;;;;;;-1.54;100.00;100904.56;4917548;28;20046;-70
2023/12/02 05:28:38;;;;;;;20.63;9.60;;;;;;;-1.53;100.00;100912.25;4923945;29;20036;-70
2023/12/02 05:31:05;;;;;;;21.38;11.15;;;;;;;-1.53;100.00;100911.44;4912620;28;20089;-70
2023/12/02 05:33:30;;;;;;;19.63;10.07;;;;;;;-1.52;100.00;100916.50;4922227;29;20039;-71
2023/12/02 05:35:56;;;;;;;17.98;9.60;;;;;;;-1.52;100.00;100900.75;4936588;28;20047;-69
2023/12/02 05:38:22;;;;;;;22.50;10.32;;;;;;;-1.52;100.00;100910.44;4942265;28;20035;-71
2023/12/02 05:40:47;;;;;;;21.10;10.30;;;;;;;-1.55;100.00;100906.38;4923852;29;20084;-71
2023/12/02 05:43:13;;;;;;;18.73;10.38;;;;;;;-1.53;100.00;100909.63;4942354;28;20078;-71
2023/12/02 05:45:39;;;;;;;17.83;9.05;;;;;;;-1.54;100.00;100910.63;4940430;28;20122;-70
2023/12/02 05:48:05;;;;;;;16.52;8.80;;;;;;;-1.54;100.00;100908.00;4911021;28;20047;-70
2023/12/02 05:50:31;;;;;;;19.42;9.82;;;;;;;-1.53;100.00;100912.25;4923669;28;20071;-71
2023/12/02 05:52:57;;;;;;;16.63;9.48;;;;;;;-1.54;100.00;100908.00;4910759;29;20039;-71
2023/12/02 05:55:22;;;;;;;18.77;9.75;;;;;;;-1.54;100.00;100910.63;4938665;28;20046;-71
2023/12/02 05:57:48;;;;;;;17.95;9.32;;;;;;;-1.54;100.00;100902.75;4942164;28;20706;-71
2023/12/02 06:00:16;;;;;;;19.52;9.65;;;;;;;-1.52;100.00;100898.13;4925474;29;20130;-70
2023/12/02 06:02:42;;;;;;;18.90;9.57;;;;;;;-1.51;100.00;100907.63;4944369;28;20036;-71
2023/12/02 06:05:08;;;;;;;19.67;9.88;;;;;;;-1.51;100.00;100905.00;4951128;28;20043;-70
2023/12/02 06:07:34;;;;;;;20.10;10.20;;;;;;;-1.53;100.00;100912.25;4930855;28;20039;-71
2023/12/02 06:10:00;;;;;;;20.83;9.85;;;;;;;-1.52;100.00;100911.25;4916056;29;20042;-71
2023/12/02 06:12:26;;;;;;;23.33;10.13;;;;;;;-1.54;100.00;100918.50;4910199;29;20035;-70
2023/12/02 06:14:51;;;;;;;16.65;8.18;;;;;;;-1.53;100.00;100922.75;4942603;28;20493;-70
2023/12/02 06:17:17;;;;;;;17.23;9.38;;;;;;;-1.51;100.00;100930.44;4926520;28;20031;-70
2023/12/02 06:19:43;;;;;;;15.20;8.55;;;;;;;-1.52;100.00;100926.19;4919553;28;20512;-70
2023/12/02 06:22:08;;;;;;;17.42;8.55;;;;;;;-1.51;100.00;100931.25;4931738;28;20051;-70
2023/12/02 06:24:34;;;;;;;18.15;9.85;;;;;;;-1.51;100.00;100933.88;4945835;28;20066;-70
2023/12/02 06:27:00;;;;;;;18.63;8.55;;;;;;;-1.49;100.00;100931.06;4898834;29;20131;-70
2023/12/02 06:29:26;;;;;;;16.25;8.07;;;;;;;-1.48;100.00;100936.16;4908722;28;20050;-70
2023/12/02 06:31:52;;;;;;;18.38;9.25;;;;;;;-1.48;100.00;100928.28;4902121;28;20421;-70
2023/12/02 06:34:17;;;;;;;17.05;8.55;;;;;;;-1.47;100.00;100937.78;4938236;28;20046;-71
2023/12/02 06:36:44;;;;;;;19.80;9.80;;;;;;;-1.48;100.00;100932.72;4904869;29;20035;-69
2023/12/02 06:39:12;;;;;;;19.08;9.70;;;;;;;-1.46;100.00;100938.59;4939653;28;20040;-70
2023/12/02 06:41:39;;;;;;;19.00;9.77;;;;;;;-1.48;100.00;100935.34;4947719;28;20510;-70
2023/12/02 06:44:04;;;;;;;20.50;10.02;;;;;;;-1.47;100.00;100942.22;4929192;28;20039;-70
2023/12/02 06:46:30;;;;;;;22.13;10.73;;;;;;;-1.47;100.00;100950.09;4923646;29;20036;-71
2023/12/02 06:48:55;;;;;;;18.45;9.60;;;;;;;-1.46;100.00;100954.34;4947810;28;20480;-70
2023/12/02 06:51:23;;;;;;;18.77;9.77;;;;;;;-1.47;100.00;100953.53;4949276;28;20119;-71
2023/12/02 06:53:49;;;;;;;18.98;9.88;;;;;;;-1.46;100.00;100951.72;4929427;29;20043;-70
2023/12/02 06:56:21;;;;;;;19.92;10.40;;;;;;;-1.46;100.00;100963.03;4906819;28;20142;-71
2023/12/02 06:58:47;;;;;;;22.73;10.05;;;;;;;-1.47;100.00;100966.69;4927607;28;20054;-70
2023/12/02 07:01:26;;;;;;;16.35;9.80;;;;;;;-1.49;100.00;100968.69;4946437;28;20559;-70
2023/12/02 07:03:53;;;;;;;19.38;10.25;;;;;;;-1.49;100.00;100963.44;4930344;29;20084;-70
2023/12/02 07:06:19;;;;;;;20.33;10.43;;;;;;;-1.50;100.00;100967.03;4933188;28;20476;-71
2023/12/02 07:08:45;;;;;;;20.15;9.30;;;;;;;-1.50;100.00;100980.16;4935200;28;20131;-70
2023/12/02 07:11:11;;;;;;;17.70;9.40;;;;;;;-1.48;100.00;100980.00;4944006;28;20135;-70
2023/12/02 07:13:36;;;;;;;18.48;9.25;;;;;;;-1.46;100.00;100986.69;4941837;28;20142;-70
2023/12/02 07:16:02;;;;;;;19.73;9.57;;;;;;;-1.47;100.00;100979.00;4948997;28;20509;-70
2023/12/02 07:18:27;;;;;;;21.55;10.70;;;;;;;-1.45;100.00;100995.38;4935159;28;20489;-70
2023/12/02 07:20:53;;;;;;;18.73;10.20;;;;;;;-1.47;100.00;100990.31;4932846;28;20047;-70
2023/12/02 07:23:19;;;;;;;18.00;9.77;;;;;;;-1.44;100.00;100992.56;4911286;29;20039;-71
2023/12/02 07:25:44;;;;;;;18.85;9.68;;;;;;;-1.42;100.00;100998.47;4927975;29;20040;-70
2023/12/02 07:28:10;;;;;;;20.23;10.02;;;;;;;-1.40;100.00;100998.28;4925428;28;20050;-71
2023/12/02 07:30:36;;;;;;;20.02;10.98;;;;;;;-1.42;100.00;101001.09;4924739;29;20070;-71
2023/12/02 07:33:02;;;;;;;19.55;10.68;;;;;;;-1.40;100.00;101003.53;4923072;28;20039;-70
2023/12/02 07:35:27;;;;;;;20.08;10.57;;;;;;;-1.38;100.00;101006.78;4936065;28;20042;-71
2023/12/02 07:37:53;;;;;;;18.83;9.48;;;;;;;-1.37;100.00;101008.41;4908972;28;20031;-70
2023/12/02 07:40:19;;;;;;;20.08;9.98;;;;;;;-1.37;100.00;101009.22;4923531;29;20106;-70
2023/12/02 07:42:44;;;;;;;19.92;8.77;;;;;;;-1.37;100.00;101013.66;4904096;28;20102;-70
2023/12/02 07:45:10;;;;;;;18.65;10.73;;;;;;;-1.36;100.00;101004.78;4928587;29;20035;-70
2023/12/02 07:47:35;;;;;;;17.80;9.35;;;;;;;-1.34;100.00;101017.75;4928285;29;20039;-71
2023/12/02 07:50:01;;;;;;;21.83;9.98;;;;;;;-1.33;100.00;101022.00;4934933;28;20031;-71
2023/12/02 07:52:27;;;;;;;20.75;9.82;;;;;;;-1.32;100.00;101015.75;4926133;28;20031;-70
2023/12/02 07:54:53;;;;;;;18.83;9.80;;;;;;;-1.33;100.00;101022.00;4924938;29;20039;-70
2023/12/02 07:57:18;;;;;;;21.30;10.80;;;;;;;-1.33;100.00;101019.38;4924408;28;20098;-71
2023/12/02 07:59:44;;;;;;;20.10;10.57;;;;;;;-1.34;100.00;101021.19;4942498;28;20047;-71
2023/12/02 08:02:10;;;;;;;20.27;10.77;;;;;;;-1.33;100.00;101030.69;4927887;28;20061;-70
2023/12/02 08:04:35;;;;;;;21.95;10.63;;;;;;;-1.32;100.00;101021.00;4928865;28;20030;-71
2023/12/02 08:07:01;;;;;;;22.90;10.25;;;;;;;-1.30;100.00;101029.50;4943717;28;20109;-71
2023/12/02 08:09:27;;;;;;;22.63;11.55;;;;;;;-1.29;100.00;101036.38;4943805;28;20110;-71
2023/12/02 08:11:53;;;;;;;20.17;11.50;;;;;;;-1.28;100.00;101035.41;4927867;28;20034;-70
2023/12/02 08:14:19;;;;;;;19.33;10.45;;;;;;;-1.28;100.00;101035.41;4938807;28;20149;-70
2023/12/02 08:16:45;;;;;;;19.63;11.02;;;;;;;-1.26;100.00;101038.66;4927917;29;20068;-70
2023/12/02 08:19:11;;;;;;;24.20;11.25;;;;;;;-1.23;100.00;101035.66;4950672;28;20031;-71
2023/12/02 08:21:36;;;;;;;18.80;10.25;;;;;;;-1.22;100.00;101037.28;4937091;28;20043;-71
2023/12/02 08:24:02;;;;;;;22.05;11.00;;;;;;;-1.20;100.00;101041.38;4925517;28;20563;-70
2023/12/02 08:26:28;;;;;;;24.33;12.32;;;;;;;-1.20;100.00;101041.38;4929520;28;20047;-70
2023/12/02 08:28:54;;;;;;;21.25;11.05;;;;;;;-1.17;100.00;101048.06;4940305;28;20039;-70
2023/12/02 08:31:19;;;;;;;20.75;11.05;;;;;;;-1.15;100.00;101057.41;4920758;28;20505;-70
2023/12/02 08:33:46;;;;;;;23.23;10.77;;;;;;;-1.11;100.00;101055.19;4945148;28;20044;-70
2023/12/02 08:36:11;;;;;;;22.23;11.45;;;;;;;-1.07;100.00;101060.91;4914156;28;20059;-70
2023/12/02 08:38:37;;;;;;;22.48;10.98;;;;;;;-1.09;100.00;101063.69;4944707;28;20035;-70
2023/12/02 08:41:02;;;;;;;19.63;11.13;;;;;;;-1.06;100.00;101063.34;4903908;28;20094;-71
2023/12/02 08:43:28;;;;;;;17.80;9.18;;;;;;;-1.04;100.00;101077.13;4920876;28;20177;-71
2023/12/02 08:45:54;;;;;;;22.30;10.65;;;;;;;-1.02;100.00;101066.41;4939354;28;20039;-70
2023/12/02 08:48:19;;;;;;;21.50;10.90;;;;;;;-1.00;100.00;101078.38;4945265;28;20105;-70
2023/12/02 08:50:45;;;;;;;19.27;10.70;;;;;;;-1.00;100.00;101072.31;4941808;28;20143;-70
2023/12/02 08:53:12;;;;;;;19.90;11.93;;;;;;;-1.00;100.00;101078.38;4913876;29;20035;-70
2023/12/02 08:55:38;;;;;;;21.17;10.93;;;;;;;-0.97;100.00;101067.47;4929790;28;20102;-71
2023/12/02 08:58:03;;;;;;;22.75;10.70;;;;;;;-0.97;100.00;101078.00;4912443;29;20449;-72
2023/12/02 09:00:30;;;;;;;19.02;10.43;;;;;;;-0.95;100.00;101076.03;4933560;28;20580;-70
2023/12/02 09:02:56;;;;;;;20.02;11.23;;;;;;;-0.94;100.00;101088.16;4950214;28;20125;-71
2023/12/02 09:05:22;;;;;;;19.52;10.38;;;;;;;-0.93;100.00;101078.47;4926087;28;20135;-70
2023/12/02 09:07:48;;;;;;;20.30;10.50;;;;;;;-0.91;100.00;101093.03;4925749;29;20067;-71
2023/12/02 09:10:13;;;;;;;19.58;11.02;;;;;;;-0.92;100.00;101091.41;4922907;28;20450;-71
2023/12/02 09:12:39;;;;;;;19.55;10.63;;;;;;;-0.91;100.00;101097.47;4926004;28;20043;-70
2023/12/02 09:15:08;;;;;;;22.42;11.35;;;;;;;-0.92;100.00;101096.66;4944322;28;20543;-71
2023/12/02 09:18:02;;;;;;;23.30;12.10;;;;;;;-0.90;100.00;101099.09;4926466;28;20039;-71
2023/12/02 09:20:43;;;;;;;20.48;10.52;;;;;;;-0.89;100.00;101096.28;4911593;28;20040;-70
2023/12/02 09:23:10;;;;;;;22.50;11.70;;;;;;;-0.90;100.00;101099.09;4916552;28;20058;-70
2023/12/02 09:25:38;;;;;;;21.40;11.25;;;;;;;-0.89;100.00;101103.38;4922183;29;20039;-71
2023/12/02 09:28:07;;;;;;;21.75;11.82;;;;;;;-0.88;100.00;101100.56;4917612;28;20043;-70
2023/12/02 09:30:33;;;;;;;24.52;11.82;;;;;;;-0.87;100.00;101093.50;4919793;28;20035;-70
2023/12/02 09:32:59;;;;;;;;;;;;;;;-0.86;100.00;101101.19;4929392;28;20137;-71
2023/12/02 09:35:24;;;;;;;20.83;11.15;;;;;;;-0.85;100.00;101105.44;4935942;28;20014;-69
2023/12/02 09:37:58;;;;;;;22.10;11.38;;;;;;;-0.85;100.00;101108.06;4939767;28;20035;-71
2023/12/02 09:40:24;;;;;;;22.05;10.20;;;;;;;-0.83;100.00;101103.44;4922408;29;20048;-70
2023/12/02 09:42:52;;;;;;;21.17;10.68;;;;;;;-0.83;100.00;101111.31;4910095;28;20035;-70
2023/12/02 09:45:21;;;;;;;22.20;11.00;;;;;;;-0.82;100.00;101101.63;4921062;28;20098;-71
2023/12/02 09:48:05;;;;;;;23.58;12.02;;;;;;;-0.80;100.00;101104.09;4920522;28;20050;-70
2023/12/02 09:50:47;;;;;;;24.85;13.13;;;;;;;-0.83;100.00;101098.19;4945882;28;20035;-70
2023/12/02 09:53:36;;;;;;;24.38;11.98;;;;;;;-0.79;100.00;101105.72;4924302;29;20045;-70
2023/12/02 09:56:14;;;;;;;20.13;11.40;;;;;;;-0.78;100.00;101104.72;4914152;29;20074;-71
2023/12/02 09:58:45;;;;;;;25.13;12.93;;;;;;;-0.79;100.00;101103.91;4943796;28;20036;-71
2023/12/02 10:01:21;;;;;;;24.27;12.38;;;;;;;-0.79;100.00;101109.16;4909109;29;20042;-71
2023/12/02 10:04:21;;;;;;;23.30;12.82;;;;;;;-0.80;100.00;101104.09;4942026;28;20035;-70
2023/12/02 10:06:51;;;;;;;20.88;11.02;;;;;;;-0.78;100.00;101104.72;4926568;29;20109;-71
2023/12/02 10:09:31;;;;;;;21.23;11.20;;;;;;;-0.79;100.00;101111.78;4932181;29;20086;-71
2023/12/02 10:12:00;;;;;;;21.98;11.88;;;;;;;-0.79;100.00;101105.72;4919522;29;20043;-71
2023/12/02 10:14:28;;;;;;;22.02;11.77;;;;;;;-0.80;100.00;101109.34;4941248;28;20126;-70
2023/12/02 10:16:54;;;;;;;20.92;11.35;;;;;;;-0.80;100.00;101111.97;4921680;29;20781;-71
2023/12/02 10:19:32;;;;;;;24.00;12.02;;;;;;;-0.78;100.00;101102.88;4940816;28;20039;-71
2023/12/02 10:22:02;;;;;;;21.50;10.40;;;;;;;-0.77;100.00;101107.16;4917051;28;20097;-70
2023/12/02 10:24:51;;;;;;;22.95;11.60;;;;;;;-0.74;100.00;101105.97;4946801;28;20118;-71
2023/12/02 10:27:18;;;;;;;20.85;11.90;;;;;;;-0.71;100.00;101114.28;4906691;28;20112;-71
2023/12/02 10:30:18;;;;;;;23.88;11.85;;;;;;;-0.69;100.00;101112.28;4920981;29;20100;-71
2023/12/02 10:33:17;;;;;;;24.55;12.57;;;;;;;-0.71;100.00;101105.59;4919363;29;20126;-71
2023/12/02 10:35:46;;;;;;;24.63;12.23;;;;;;;-0.74;100.00;101098.09;4926548;28;20075;-71
2023/12/02 10:38:22;;;;;;;24.48;12.55;;;;;;;-0.73;100.00;101100.53;4943588;28;20027;-71
2023/12/02 10:40:57;;;;;;;29.75;12.00;;;;;;;-0.74;100.00;101103.34;4929415;28;20509;-71
2023/12/02 10:43:33;;;;;;;21.77;11.98;;;;;;;-0.71;100.00;101108.22;4936338;28;20111;-70
2023/12/02 10:45:59;;;;;;;24.25;12.10;;;;;;;-0.70;100.00;101105.41;4926029;28;20038;-70
2023/12/02 10:48:25;;;;;;;23.00;12.57;;;;;;;-0.69;100.00;101107.03;4928868;29;20041;-71
2023/12/02 10:50:51;;;;;;;;;;;;;;;-0.66;100.00;101095.34;4909014;28;20113;-70
2023/12/02 10:53:22;;;;;;;19.10;10.75;;;;;;;-0.64;100.00;101101.22;4930296;28;19914;-71
2023/12/02 10:55:53;;;;;;;25.15;12.30;;;;;;;-0.61;100.00;101100.81;4927148;29;20035;-70
2023/12/02 10:58:20;;;;;;;20.60;11.77;;;;;;;-0.59;100.00;101101.47;4912244;28;20035;-71
2023/12/02 11:00:47;;;;;;;;;;;;;;;-0.60;100.00;101103.28;4934682;28;20045;-71
2023/12/02 11:03:19;;;;;;;23.00;10.77;;;;;;;-0.62;100.00;101101.84;4952284;28;19918;-71
2023/12/02 11:06:00;;;;;;;23.10;11.55;;;;;;;-0.64;100.00;101103.84;4931160;29;20039;-70
2023/12/02 11:08:48;;;;;;;26.23;13.50;;;;;;;-0.63;100.00;101102.84;4927106;28;20035;-70